createdAt,value
2022-08-27T00:00:47.412Z,99158.12
2022-08-27T00:03:15.093Z,99159.19
2022-08-27T00:05:42.519Z,99157.56
2022-08-27T00:08:12.500Z,99152.69
2022-08-27T00:10:40.829Z,99155.69
2022-08-27T00:13:08.356Z,99158.12
2022-08-27T00:15:35.986Z,99157.38
2022-08-27T00:18:04.348Z,99154.91
2022-08-27T00:20:31.826Z,99160.84
2022-08-27T00:22:59.303Z,99156.19
2022-08-27T00:25:27.387Z,99159.50
2022-08-27T00:27:54.769Z,99157.31
2022-08-27T00:30:22.664Z,99155.06
2022-08-27T00:32:50.421Z,99159.22
2022-08-27T00:35:18.699Z,99162.50
2022-08-27T00:37:46.142Z,99169.56
2022-08-27T00:40:16.681Z,99171.25
2022-08-27T00:42:46.002Z,99160.38
2022-08-27T00:45:15.396Z,99157.09
2022-08-27T00:47:45.585Z,99158.78
2022-08-27T00:50:18.048Z,99153.28
2022-08-27T00:52:51.228Z,99156.00
2022-08-27T00:55:21.728Z,99153.94
2022-08-27T00:58:14.015Z,99160.41
2022-08-27T01:00:42.425Z,99164.94
2022-08-27T01:03:10.147Z,99158.16
2022-08-27T01:05:38.291Z,99168.44
2022-08-27T01:08:14.230Z,99171.75
2022-08-27T01:10:42.052Z,99176.13
2022-08-27T01:13:10.580Z,99170.16
2022-08-27T01:15:38.543Z,99174.53
2022-08-27T01:18:06.242Z,99172.34
2022-08-27T01:20:51.736Z,99171.81
2022-08-27T01:23:22.303Z,99178.59
2022-08-27T01:25:50.098Z,99172.09
2022-08-27T01:28:17.583Z,99176.69
2022-08-27T01:30:51.557Z,99177.78
2022-08-27T01:33:20.688Z,99179.41
2022-08-27T01:35:49.116Z,99178.34
2022-08-27T01:38:30.443Z,99178.31
2022-08-27T01:40:59.480Z,99186.19
2022-08-27T01:43:28.876Z,99176.97
2022-08-27T01:45:56.272Z,99183.72
2022-08-27T01:48:23.689Z,99183.50
2022-08-27T01:50:51.416Z,99182.03
2022-08-27T01:53:23.045Z,99188.50
2022-08-27T01:55:51.778Z,99180.72
2022-08-27T01:58:20.871Z,99193.16
2022-08-27T02:00:51.998Z,99193.72
2022-08-27T02:03:24.242Z,99191.63
2022-08-27T02:05:51.698Z,99191.50
2022-08-27T02:08:19.282Z,99192.34
2022-08-27T02:10:47.665Z,99190.16
2022-08-27T02:13:15.274Z,99188.53
2022-08-27T02:15:43.090Z,99189.50
2022-08-27T02:18:11.008Z,99184.22
2022-08-27T02:20:38.515Z,99190.03
2022-08-27T02:23:06.322Z,99189.50
2022-08-27T02:25:34.402Z,99188.69
2022-08-27T02:28:01.983Z,99182.31
2022-08-27T02:30:30.224Z,99182.03
2022-08-27T02:33:00.900Z,99178.25
2022-08-27T02:35:29.385Z,99174.97
2022-08-27T02:37:57.023Z,99182.75
2022-08-27T02:40:25.065Z,99172.25
2022-08-27T02:42:52.527Z,99170.53
2022-08-27T02:45:20.448Z,99172.25
2022-08-27T02:47:48.541Z,99177.69
2022-08-27T02:50:16.048Z,99178.25
2022-08-27T02:52:45.929Z,99177.66
2022-08-27T02:55:14.564Z,99181.94
2022-08-27T02:57:45.172Z,99177.59
2022-08-27T03:00:14.424Z,99178.78
2022-08-27T03:02:42.174Z,99180.88
2022-08-27T03:05:10.128Z,99170.63
2022-08-27T03:07:37.527Z,99173.97
2022-08-27T03:10:05.554Z,99171.63
2022-08-27T03:12:34.315Z,99173.34
2022-08-27T03:15:05.456Z,99178.34
2022-08-27T03:17:51.682Z,99172.25
2022-08-27T03:20:19.112Z,99172.50
2022-08-27T03:22:46.807Z,99177.34
2022-08-27T03:25:14.264Z,99177.87
2022-08-27T03:27:41.691Z,99184.47
2022-08-27T03:30:12.754Z,99182.22
2022-08-27T03:32:40.157Z,99178.66
2022-08-27T03:35:07.938Z,99185.66
2022-08-27T03:37:35.605Z,99174.50
2022-08-27T03:40:04.040Z,99180.06
2022-08-27T03:42:31.502Z,99183.91
2022-08-27T03:44:59.182Z,99181.41
2022-08-27T03:47:26.687Z,99184.06
2022-08-27T03:49:54.100Z,99177.63
2022-08-27T03:52:21.816Z,99185.44
2022-08-27T03:54:49.251Z,99182.03
2022-08-27T03:57:16.632Z,99181.03
2022-08-27T03:59:44.379Z,99183.34
2022-08-27T04:02:12.182Z,99184.09
2022-08-27T04:04:42.616Z,99189.97
2022-08-27T04:07:10.580Z,99185.13
2022-08-27T04:09:38.016Z,99192.63
2022-08-27T04:12:05.873Z,99190.50
2022-08-27T04:14:33.931Z,99181.47
2022-08-27T04:17:01.342Z,99183.03
2022-08-27T04:19:30.886Z,99180.06
2022-08-27T04:22:00.332Z,99180.38
2022-08-27T04:24:28.644Z,99180.94
2022-08-27T04:26:56.371Z,99183.81
2022-08-27T04:29:24.142Z,99189.50
2022-08-27T04:31:51.546Z,99196.00
2022-08-27T04:34:19.232Z,99189.56
2022-08-27T04:36:46.624Z,99186.09
2022-08-27T04:39:14.266Z,99187.41
2022-08-27T04:41:42.351Z,99184.09
2022-08-27T04:44:10.250Z,99189.09
2022-08-27T04:46:39.144Z,99189.06
2022-08-27T04:49:10.279Z,99183.66
2022-08-27T04:51:39.976Z,99180.88
2022-08-27T04:54:08.195Z,99180.56
2022-08-27T04:56:36.219Z,99174.47
2022-08-27T04:59:08.098Z,99181.56
2022-08-27T05:01:36.279Z,99178.03
2022-08-27T05:04:04.049Z,99173.97
2022-08-27T05:06:31.471Z,99192.34
2022-08-27T05:08:59.154Z,99186.69
2022-08-27T05:11:27.875Z,99186.44
2022-08-27T05:13:55.255Z,99181.59
2022-08-27T05:16:23.128Z,99189.44
2022-08-27T05:18:51.067Z,99180.50
2022-08-27T05:21:20.459Z,99184.81
2022-08-27T05:23:48.237Z,99187.47
2022-08-27T05:26:15.669Z,99186.97
2022-08-27T05:28:43.100Z,99190.72
2022-08-27T05:31:11.951Z,99187.97
2022-08-27T05:33:39.551Z,99185.53
2022-08-27T05:36:07.351Z,99182.53
2022-08-27T05:38:35.140Z,99176.44
2022-08-27T05:41:06.351Z,99175.22
2022-08-27T05:43:34.048Z,99177.78
2022-08-27T05:46:05.267Z,99173.41
2022-08-27T05:48:33.051Z,99175.16
2022-08-27T05:51:10.616Z,99177.72
2022-08-27T05:53:38.972Z,99181.06
2022-08-27T05:56:13.266Z,99175.28
2022-08-27T05:58:59.506Z,99184.63
2022-08-27T06:01:27.032Z,99166.53
2022-08-27T06:03:55.136Z,99171.88
2022-08-27T06:06:25.512Z,99173.53
2022-08-27T06:08:53.493Z,99172.41
2022-08-27T06:11:21.303Z,99177.91
2022-08-27T06:13:48.709Z,99174.75
2022-08-27T06:16:17.466Z,99170.25
2022-08-27T06:18:45.935Z,99164.72
2022-08-27T06:21:13.575Z,99167.88
2022-08-27T06:23:41.093Z,99174.50
2022-08-27T06:26:10.234Z,99178.69
2022-08-27T06:28:39.014Z,99174.84
2022-08-27T06:31:13.196Z,99181.09
2022-08-27T06:33:41.428Z,99197.06
2022-08-27T06:36:10.550Z,99189.91
2022-08-27T06:38:38.027Z,99191.78
2022-08-27T06:41:16.526Z,99192.97
2022-08-27T06:43:50.943Z,99202.50
2022-08-27T06:46:20.211Z,99200.91
2022-08-27T06:48:48.429Z,99195.66
2022-08-27T06:51:27.493Z,99199.91
2022-08-27T06:53:55.835Z,99195.63
2022-08-27T06:56:23.336Z,99200.28
2022-08-27T06:58:55.378Z,99197.44
2022-08-27T07:01:28.207Z,99204.84
2022-08-27T07:03:58.836Z,99201.72
2022-08-27T07:06:27.243Z,99205.66
2022-08-27T07:08:54.669Z,99200.78
2022-08-27T07:11:22.179Z,99197.88
2022-08-27T07:13:49.846Z,99199.56
2022-08-27T07:16:20.028Z,99209.37
2022-08-27T07:18:51.045Z,99210.97
2022-08-27T07:21:21.751Z,99220.56
2022-08-27T07:23:50.242Z,99216.28
2022-08-27T07:26:19.385Z,99211.66
2022-08-27T07:28:46.787Z,99208.16
2022-08-27T07:31:17.088Z,99217.44
2022-08-27T07:33:52.195Z,99208.16
2022-08-27T07:36:21.114Z,99214.97
2022-08-27T07:38:57.026Z,99225.31
2022-08-27T07:41:30.723Z,99213.75
2022-08-27T07:44:18.767Z,99221.66
2022-08-27T07:46:48.443Z,99214.16
2022-08-27T07:49:17.694Z,99222.38
2022-08-27T07:51:45.206Z,99211.19
2022-08-27T07:54:12.601Z,99213.09
2022-08-27T07:56:40.388Z,99212.81
2022-08-27T07:59:08.278Z,99213.16
2022-08-27T08:01:35.788Z,99211.09
2022-08-27T08:04:03.686Z,99209.41
2022-08-27T08:06:31.330Z,99204.44
2022-08-27T08:08:59.487Z,99209.78
2022-08-27T08:11:27.176Z,99214.47
2022-08-27T08:13:54.590Z,99217.44
2022-08-27T08:16:27.206Z,99217.84
2022-08-27T08:18:57.396Z,99212.31
2022-08-27T08:21:24.787Z,99221.09
2022-08-27T08:23:52.441Z,99222.72
2022-08-27T08:26:20.249Z,99216.41
2022-08-27T08:28:47.818Z,99222.38
2022-08-27T08:31:15.346Z,99221.06
2022-08-27T08:33:43.103Z,99216.94
2022-08-27T08:36:12.825Z,99211.91
2022-08-27T08:38:40.398Z,99222.09
2022-08-27T08:41:32.070Z,99215.78
2022-08-27T08:44:04.772Z,99207.06
2022-08-27T08:46:39.825Z,99203.97
2022-08-27T08:49:22.055Z,99197.97
2022-08-27T08:51:51.971Z,99185.13
2022-08-27T08:54:20.851Z,99179.13
2022-08-27T08:57:00.394Z,99174.56
2022-08-27T08:59:35.226Z,99165.66
2022-08-27T09:02:02.667Z,99162.34
2022-08-27T09:04:30.414Z,99154.03
2022-08-27T09:07:19.370Z,99161.09
2022-08-27T09:09:48.084Z,99155.13
2022-08-27T09:12:19.315Z,99154.91
2022-08-27T09:14:47.473Z,99153.00
2022-08-27T09:17:14.902Z,99156.03
2022-08-27T09:19:43.031Z,99143.97
2022-08-27T09:22:13.247Z,99159.38
2022-08-27T09:24:49.739Z,99145.47
2022-08-27T09:27:17.499Z,99136.25
2022-08-27T09:29:53.039Z,99133.13
2022-08-27T09:32:25.978Z,99127.19
2022-08-27T09:34:58.242Z,99127.84
2022-08-27T09:37:34.707Z,99128.94
2022-08-27T09:40:32.725Z,99139.81
2022-08-27T09:43:15.885Z,99138.91
2022-08-27T09:45:51.712Z,99131.06
2022-08-27T09:48:21.421Z,99142.56
2022-08-27T09:51:00.155Z,99144.31
2022-08-27T09:53:33.926Z,99147.75
2022-08-27T09:56:09.107Z,99152.19
2022-08-27T09:58:43.011Z,99151.84
2022-08-27T10:01:31.788Z,99148.94
2022-08-27T10:04:27.540Z,99142.53
2022-08-27T10:06:54.988Z,99140.03
2022-08-27T10:09:26.828Z,99142.28
2022-08-27T10:12:15.365Z,99140.94
2022-08-27T10:14:45.316Z,99133.28
2022-08-27T10:17:24.846Z,99141.34
2022-08-27T10:20:21.627Z,99135.38
2022-08-27T10:23:23.355Z,99124.87
2022-08-27T10:25:59.048Z,99119.44
2022-08-27T10:28:36.809Z,99121.81
2022-08-27T10:31:13.656Z,99124.59
2022-08-27T10:33:57.029Z,99137.44
2022-08-27T10:36:48.795Z,99140.72
2022-08-27T10:39:38.522Z,99160.09
2022-08-27T10:42:40.323Z,99169.00
2022-08-27T10:45:50.230Z,99159.34
2022-08-27T10:48:24.576Z,99161.97
2022-08-27T10:50:56.307Z,99169.84
2022-08-27T10:53:27.498Z,99168.41
2022-08-27T10:56:10.530Z,99184.50
2022-08-27T10:58:54.187Z,99179.63
2022-08-27T11:01:34.699Z,99171.84
2022-08-27T11:04:06.856Z,99168.41
2022-08-27T11:06:39.835Z,99165.16
2022-08-27T11:09:13.403Z,99176.03
2022-08-27T11:14:43.244Z,99165.94
2022-08-27T11:17:20.526Z,99169.75
2022-08-27T11:20:12.490Z,99159.44
2022-08-27T11:22:47.947Z,99176.03
2022-08-27T11:25:27.864Z,99152.84
2022-08-27T11:27:55.383Z,99158.03
2022-08-27T11:30:34.493Z,99165.06
2022-08-27T11:33:07.226Z,99165.16
2022-08-27T11:36:13.343Z,99161.56
2022-08-27T11:38:50.543Z,99163.31
2022-08-27T11:41:46.683Z,99155.78
2022-08-27T11:44:14.607Z,99154.69
2022-08-27T11:46:54.392Z,99150.34
2022-08-27T11:49:41.456Z,99150.31
2022-08-27T11:52:09.185Z,99149.50
2022-08-27T11:54:48.371Z,99148.53
2022-08-27T11:57:26.560Z,99144.78
2022-08-27T11:59:53.976Z,99130.00
2022-08-27T12:02:26.915Z,99141.22
2022-08-27T12:05:05.832Z,99144.09
2022-08-27T12:07:34.802Z,99131.19
2022-08-27T12:10:12.768Z,99131.22
2022-08-27T12:12:52.398Z,99126.34
2022-08-27T12:15:31.236Z,99124.94
2022-08-27T12:18:43.331Z,99113.47
2022-08-27T12:21:22.271Z,99113.84
2022-08-27T12:24:21.027Z,99108.31
2022-08-27T12:27:13.099Z,99105.56
2022-08-27T12:29:44.073Z,99106.88
2022-08-27T12:32:33.954Z,99110.13
2022-08-27T12:35:26.928Z,99106.03
2022-08-27T12:38:17.675Z,99098.97
2022-08-27T12:40:54.055Z,99102.06
2022-08-27T12:43:26.408Z,99096.00
2022-08-27T12:46:04.613Z,99101.53
2022-08-27T12:48:40.079Z,99087.78
2022-08-27T12:51:31.283Z,99081.22
2022-08-27T12:54:05.761Z,99085.09
2022-08-27T12:56:52.590Z,99077.22
2022-08-27T12:59:27.099Z,99082.44
2022-08-27T13:02:01.748Z,99075.94
2022-08-27T13:04:31.031Z,99071.03
2022-08-27T13:06:58.472Z,99076.28
2022-08-27T13:09:33.752Z,99073.19
2022-08-27T13:12:02.007Z,99071.72
2022-08-27T13:14:38.547Z,99070.66
2022-08-27T13:17:12.071Z,99072.81
2022-08-27T13:19:50.891Z,99076.34
2022-08-27T13:22:32.430Z,99077.41
2022-08-27T13:25:00.060Z,99085.13
2022-08-27T13:27:32.721Z,99073.66
2022-08-27T13:30:06.976Z,99069.59
2022-08-27T13:32:34.703Z,99071.44
2022-08-27T13:35:02.108Z,99074.13
2022-08-27T13:37:35.219Z,99078.44
2022-08-27T13:40:03.252Z,99076.34
2022-08-27T13:42:31.637Z,99081.09
2022-08-27T13:45:04.446Z,99080.03
2022-08-27T13:47:32.102Z,99077.91
2022-08-27T13:50:07.937Z,99077.75
2022-08-27T13:52:56.767Z,99077.56
2022-08-27T13:55:24.266Z,99070.19
2022-08-27T13:57:52.038Z,99075.53
2022-08-27T14:00:31.560Z,99077.88
2022-08-27T14:03:00.971Z,99072.13
2022-08-27T14:05:31.104Z,99074.78
2022-08-27T14:08:00.569Z,99077.16
2022-08-27T14:10:39.418Z,99066.97
2022-08-27T14:13:12.687Z,99073.19
2022-08-27T14:15:42.639Z,99074.53
2022-08-27T14:18:58.226Z,99071.63
2022-08-27T14:21:23.012Z,99071.56
2022-08-27T14:23:50.805Z,99068.81
2022-08-27T14:26:18.247Z,99071.22
2022-08-27T14:28:46.046Z,99068.00
2022-08-27T14:31:13.936Z,99076.41
2022-08-27T14:33:41.503Z,99078.06
2022-08-27T14:36:09.023Z,99067.41
2022-08-27T14:38:38.194Z,99069.94
2022-08-27T14:41:08.571Z,99061.56
2022-08-27T14:43:36.353Z,99068.75
2022-08-27T14:46:04.240Z,99062.16
2022-08-27T14:48:33.218Z,99062.50
2022-08-27T14:51:02.511Z,99063.81
2022-08-27T14:53:30.192Z,99069.53
2022-08-27T14:55:59.372Z,99064.91
2022-08-27T14:58:26.979Z,99070.84
2022-08-27T15:00:56.430Z,99072.72
2022-08-27T15:03:26.718Z,99076.63
2022-08-27T15:05:54.973Z,99072.78
2022-08-27T15:08:27.658Z,99068.78
2022-08-27T15:10:57.986Z,99076.00
2022-08-27T15:13:25.722Z,99080.94
2022-08-27T15:15:53.180Z,99084.06
2022-08-27T15:18:20.688Z,99078.34
2022-08-27T15:20:48.578Z,99075.91
2022-08-27T15:23:15.992Z,99079.31
2022-08-27T15:25:44.671Z,99082.56
2022-08-27T15:28:12.605Z,99094.72
2022-08-27T15:30:40.226Z,99093.44
2022-08-27T15:33:07.718Z,99085.22
2022-08-27T15:35:35.412Z,99089.34
2022-08-27T15:38:02.945Z,99093.66
2022-08-27T15:40:32.088Z,99099.75
2022-08-27T15:43:02.317Z,99089.53
2022-08-27T15:45:31.182Z,99090.97
2022-08-27T15:47:59.305Z,99101.34
2022-08-27T15:50:27.546Z,99086.44
2022-08-27T15:52:58.251Z,99092.44
2022-08-27T15:55:28.106Z,99089.94
2022-08-27T15:57:55.790Z,99093.53
2022-08-27T16:00:24.292Z,99095.81
2022-08-27T16:02:52.142Z,99094.53
2022-08-27T16:05:19.868Z,99094.94
2022-08-27T16:07:47.338Z,99086.41
2022-08-27T16:10:15.185Z,99089.16
2022-08-27T16:12:42.567Z,99089.81
2022-08-27T16:15:10.244Z,99090.97
2022-08-27T16:17:37.962Z,99091.81
2022-08-27T16:20:06.136Z,99089.91
2022-08-27T16:22:34.828Z,99092.81
2022-08-27T16:25:02.842Z,99099.34
2022-08-27T16:27:30.390Z,99093.84
2022-08-27T16:29:57.841Z,99096.75
2022-08-27T16:32:25.902Z,99095.47
2022-08-27T16:34:55.719Z,99094.50
2022-08-27T16:37:26.547Z,99090.50
2022-08-27T16:39:54.230Z,99089.50
2022-08-27T16:42:21.930Z,99096.78
2022-08-27T16:44:49.377Z,99096.47
2022-08-27T16:47:17.086Z,99102.41
2022-08-27T16:50:03.186Z,99102.09
2022-08-27T16:52:30.842Z,99097.75
2022-08-27T16:55:00.038Z,99092.06
2022-08-27T16:57:27.454Z,99100.25
2022-08-27T16:59:55.842Z,99100.56
2022-08-27T17:02:30.338Z,99096.97
2022-08-27T17:05:12.394Z,99101.66
2022-08-27T17:07:49.304Z,99101.31
2022-08-27T17:10:18.403Z,99104.16
2022-08-27T17:12:46.981Z,99112.78
2022-08-27T17:15:17.432Z,99109.69
2022-08-27T17:17:45.253Z,99119.31
2022-08-27T17:20:15.005Z,99130.28
2022-08-27T17:22:43.336Z,99143.19
2022-08-27T17:25:11.023Z,99148.91
2022-08-27T17:27:38.398Z,99150.53
2022-08-27T17:30:06.707Z,99165.91
2022-08-27T17:32:37.173Z,99162.87
2022-08-27T17:35:06.590Z,99168.22
2022-08-27T17:37:34.458Z,99169.66
2022-08-27T17:40:02.291Z,99185.31
2022-08-27T17:42:31.057Z,99176.16
2022-08-27T17:44:58.568Z,99176.88
2022-08-27T17:47:26.889Z,99183.38
2022-08-27T17:49:54.250Z,99179.13
2022-08-27T17:52:22.367Z,99185.87
2022-08-27T17:54:51.797Z,99192.97
2022-08-27T17:57:23.922Z,99187.31
2022-08-27T17:59:52.171Z,99191.81
2022-08-27T18:02:22.405Z,99188.75
2022-08-27T18:04:50.326Z,99197.16
2022-08-27T18:07:18.882Z,99196.34
2022-08-27T18:09:48.076Z,99191.19
2022-08-27T18:12:17.992Z,99198.88
2022-08-27T18:14:45.935Z,99187.56
2022-08-27T18:17:13.673Z,99194.22
2022-08-27T18:19:45.467Z,99198.25
2022-08-27T18:22:13.240Z,99193.91
2022-08-27T18:24:40.728Z,99201.88
2022-08-27T18:27:08.378Z,99208.06
2022-08-27T18:29:35.716Z,99210.69
2022-08-27T18:32:04.999Z,99209.34
2022-08-27T18:34:32.646Z,99208.84
2022-08-27T18:37:00.007Z,99197.31
2022-08-27T18:39:28.194Z,99208.03
2022-08-27T18:41:55.824Z,99211.50
2022-08-27T18:44:23.318Z,99207.53
2022-08-27T18:46:51.638Z,99206.53
2022-08-27T18:49:19.587Z,99212.22
2022-08-27T18:51:50.657Z,99215.59
2022-08-27T18:54:21.164Z,99213.53
2022-08-27T18:56:48.665Z,99222.19
2022-08-27T18:59:16.216Z,99204.12
2022-08-27T19:01:43.971Z,99203.63
2022-08-27T19:04:11.469Z,99198.97
2022-08-27T19:06:38.910Z,99210.47
2022-08-27T19:09:06.876Z,99210.03
2022-08-27T19:11:34.233Z,99205.91
2022-08-27T19:14:01.597Z,99208.56
2022-08-27T19:16:46.520Z,99202.00
2022-08-27T19:19:14.823Z,99207.87
2022-08-27T19:21:42.617Z,99199.78
2022-08-27T19:24:10.123Z,99196.69
2022-08-27T19:26:37.486Z,99200.09
2022-08-27T19:29:05.265Z,99204.28
2022-08-27T19:31:34.667Z,99194.84
2022-08-27T19:34:08.656Z,99193.22
2022-08-27T19:36:39.059Z,99204.00
2022-08-27T19:39:06.714Z,99193.94
2022-08-27T19:41:34.119Z,99200.09
2022-08-27T19:44:02.950Z,99192.41
2022-08-27T19:46:32.820Z,99195.75
2022-08-27T19:49:00.179Z,99200.59
2022-08-27T19:51:27.865Z,99201.63
2022-08-27T19:53:55.246Z,99196.97
2022-08-27T19:56:22.588Z,99208.78
2022-08-27T19:58:53.011Z,99207.03
2022-08-27T20:01:24.074Z,99212.44
2022-08-27T20:03:51.775Z,99211.22
2022-08-27T20:06:19.662Z,99216.91
2022-08-27T20:08:50.565Z,99218.09
2022-08-27T20:11:22.020Z,99226.28
2022-08-27T20:13:50.817Z,99231.37
2022-08-27T20:16:19.070Z,99228.03
2022-08-27T20:18:46.530Z,99229.75
2022-08-27T20:21:13.963Z,99228.31
2022-08-27T20:23:41.642Z,99226.19
2022-08-27T20:26:09.338Z,99221.78
2022-08-27T20:28:39.766Z,99230.38
2022-08-27T20:31:08.300Z,99228.66
2022-08-27T20:33:35.678Z,99222.59
2022-08-27T20:36:03.414Z,99222.66
2022-08-27T20:38:31.033Z,99226.41
2022-08-27T20:40:58.382Z,99232.66
2022-08-27T20:43:25.770Z,99223.69
2022-08-27T20:45:53.460Z,99231.97
2022-08-27T20:48:20.886Z,99234.03
2022-08-27T20:50:48.253Z,99235.12
2022-08-27T20:53:15.964Z,99232.03
2022-08-27T20:55:43.348Z,99235.75
2022-08-27T20:58:29.442Z,99230.00
2022-08-27T21:00:57.160Z,99229.06
2022-08-27T21:03:24.754Z,99229.00
2022-08-27T21:05:52.552Z,99238.22
2022-08-27T21:08:20.313Z,99242.53
2022-08-27T21:10:56.767Z,99239.25
2022-08-27T21:13:25.159Z,99239.13
2022-08-27T21:15:56.402Z,99246.16
2022-08-27T21:18:29.716Z,99242.09
2022-08-27T21:21:01.240Z,99237.00
2022-08-27T21:23:29.116Z,99241.00
2022-08-27T21:26:01.288Z,99245.47
2022-08-27T21:28:29.063Z,99251.72
2022-08-27T21:30:56.485Z,99246.16
2022-08-27T21:33:23.935Z,99253.72
2022-08-27T21:35:51.726Z,99248.19
2022-08-27T21:38:19.100Z,99256.53
2022-08-27T21:40:46.677Z,99254.22
2022-08-27T21:43:14.292Z,99246.03
2022-08-27T21:45:42.958Z,99248.00
2022-08-27T21:48:10.511Z,99248.94
2022-08-27T21:50:38.354Z,99251.78
2022-08-27T21:53:05.799Z,99260.88
2022-08-27T21:55:33.697Z,99257.72
2022-08-27T21:58:01.330Z,99251.38
2022-08-27T22:00:28.914Z,99254.16
2022-08-27T22:02:57.025Z,99254.44
2022-08-27T22:05:24.638Z,99252.59
2022-08-27T22:07:52.019Z,99246.28
2022-08-27T22:10:19.946Z,99246.87
2022-08-27T22:12:47.324Z,99249.88
2022-08-27T22:15:14.824Z,99240.66
2022-08-27T22:17:42.477Z,99235.75
2022-08-27T22:20:10.284Z,99239.28
2022-08-27T22:22:37.739Z,99237.38
2022-08-27T22:25:06.111Z,99227.47
2022-08-27T22:27:33.551Z,99232.06
2022-08-27T22:30:00.917Z,99232.59
2022-08-27T22:32:28.568Z,99235.25
2022-08-27T22:34:55.919Z,99229.13
2022-08-27T22:37:23.316Z,99226.63
2022-08-27T22:39:51.134Z,99227.47
2022-08-27T22:42:19.528Z,99227.75
2022-08-27T22:44:47.567Z,99225.22
2022-08-27T22:47:15.168Z,99225.47
2022-08-27T22:49:43.170Z,99230.81
2022-08-27T22:52:10.554Z,99228.56
2022-08-27T22:54:38.195Z,99239.47
2022-08-27T22:57:05.622Z,99238.41
2022-08-27T22:59:38.849Z,99241.19
2022-08-27T23:02:08.405Z,99231.78
2022-08-27T23:04:53.973Z,99237.16
2022-08-27T23:07:23.610Z,99235.25
2022-08-27T23:09:50.991Z,99235.31
2022-08-27T23:12:19.790Z,99241.59
2022-08-27T23:14:47.495Z,99237.28
2022-08-27T23:17:16.017Z,99227.41
2022-08-27T23:19:43.459Z,99232.88
2022-08-27T23:22:11.169Z,99234.34
2022-08-27T23:24:58.495Z,99233.97
2022-08-27T23:27:29.119Z,99238.34
2022-08-27T23:29:57.452Z,99261.00
2022-08-27T23:32:24.825Z,99295.44
2022-08-27T23:34:52.653Z,99328.13
2022-08-27T23:37:20.001Z,99341.44
2022-08-27T23:39:47.467Z,99340.47
2022-08-27T23:42:18.436Z,99320.47
2022-08-27T23:44:46.361Z,99339.56
2022-08-27T23:47:13.789Z,99355.84
2022-08-27T23:49:43.285Z,99361.19
2022-08-27T23:52:11.037Z,99367.22
2022-08-27T23:54:38.509Z,99356.38
2022-08-27T23:57:06.217Z,99364.78
2022-08-27T23:59:33.553Z,99372.34
